Terminal Aerodrome Forecast
Issued by NWS

Home | Current Version | Previous Version | Text Only | Print | Product List | Glossary On
Versions: 1 2 3 4 5 6 7 8 9 10 11 12 13 14 15
000
FTUS44 KEWX 281500 AAB
TAFSSF
TAF AMD
KSSF 281510Z 2815/2912 19008KT P6SM OVC005
     FM281600 19010KT P6SM SCT005 BKN015
     FM281730 19010KT P6SM BKN035
     FM290000 16005KT P6SM SCT035
     FM290800 17004KT P6SM BKN015=

USA.gov is the U.S. government's official web portal to all federal, state and local government web resources and services.